Terminal Aerodrome Forecast
Issued by NWS

Home | Current Version | Previous Version | Text Only | Print | Product List | Glossary On
Versions: 1 2 3 4 5 6 7 8 9 10 11 12 13 14 15
387
FTAK31 PAJN 271924 AAA
TAFAGY
TAF AMD
PAGY 271924Z 2719/2818 02005KT 6SM -RASN BR BKN025 OVC035
      TEMPO 2719/2723 2SM -SNRA BR OVC015
     FM272300 VRB04KT 4SM -RA BR OVC015
     FM280500 20011KT 6SM -SHRA BR BKN015 OVC025
     FM281200 20008KT P6SM VCSH SCT015 OVC045
      AMD LTD TO CLD VIS AND WIND=

USA.gov is the U.S. government's official web portal to all federal, state and local government web resources and services.